Time;durP1;ratioP1;P1;durP2;ratioP2;P2;SDS_P1;SDS_P2;PMS_P1;PMS_P2;Temp;Humidity;BMP_temperature;BMP_pressure;BME280_temperature;BME280_humidity;BME280_pressure;Samples;Min_cycle;Max_cycle;Signal;HPM_P1;HPM_P2
2023/12/26 00:02:24;;;;;;;3.13;1.37;;;10.90;99.90;;;;;;5040548;28;20280;-72
2023/12/26 00:04:49;;;;;;;1.13;1.03;;;10.90;99.90;;;;;;5044529;28;20193;-72
2023/12/26 00:07:15;;;;;;;1.10;1.00;;;10.90;99.90;;;;;;5039293;28;20437;-72
2023/12/26 00:09:41;;;;;;;2.83;1.30;;;10.90;99.90;;;;;;5042095;28;20198;-72
2023/12/26 00:12:07;;;;;;;1.50;1.30;;;10.90;99.90;;;;;;5042201;28;20193;-72
2023/12/26 00:14:33;;;;;;;1.30;1.20;;;10.90;99.90;;;;;;5042623;28;21264;-73
2023/12/26 00:16:58;;;;;;;1.37;1.17;;;10.90;99.90;;;;;;5042511;28;21357;-73
2023/12/26 00:19:24;;;;;;;1.87;1.40;;;10.90;99.90;;;;;;5043774;28;21494;-72
2023/12/26 00:21:50;;;;;;;1.53;1.17;;;10.90;99.90;;;;;;5042911;28;20194;-72
2023/12/26 00:24:16;;;;;;;2.57;1.20;;;10.90;99.90;;;;;;5041860;28;20276;-72
2023/12/26 00:26:42;;;;;;;1.10;1.00;;;10.90;99.90;;;;;;5043739;28;20181;-72
2023/12/26 00:29:08;;;;;;;1.07;0.97;;;10.80;99.90;;;;;;5041840;28;20186;-72
2023/12/26 00:31:33;;;;;;;1.30;1.10;;;10.80;99.90;;;;;;5042977;28;21234;-72
2023/12/26 00:33:59;;;;;;;1.20;1.10;;;10.90;99.90;;;;;;5037351;28;20479;-72
2023/12/26 00:36:25;;;;;;;1.30;1.20;;;10.90;99.90;;;;;;5040971;28;20192;-72
2023/12/26 00:38:51;;;;;;;1.13;1.00;;;10.90;99.90;;;;;;5042710;28;20193;-72
2023/12/26 00:41:16;;;;;;;2.90;1.40;;;10.90;99.90;;;;;;5041841;28;20243;-72
2023/12/26 00:43:42;;;;;;;1.10;1.00;;;10.90;99.90;;;;;;5040939;28;20926;-73
2023/12/26 00:46:08;;;;;;;0.93;0.83;;;10.90;99.90;;;;;;5040547;28;20714;-72
2023/12/26 00:48:37;;;;;;;3.00;1.47;;;10.90;99.90;;;;;;5042139;28;20942;-72
2023/12/26 00:51:03;;;;;;;1.03;0.93;;;10.80;99.90;;;;;;5072074;28;20197;-72
2023/12/26 00:53:29;;;;;;;1.03;0.93;;;10.90;99.90;;;;;;5041551;28;20476;-72
2023/12/26 00:55:55;;;;;;;1.50;0.90;;;10.80;99.90;;;;;;5041531;28;20428;-73
2023/12/26 00:58:20;;;;;;;0.80;0.70;;;10.80;99.90;;;;;;5049337;28;20435;-71
2023/12/26 01:00:46;;;;;;;2.70;0.80;;;10.90;99.90;;;;;;5073622;28;20526;-72
2023/12/26 01:03:15;;;;;;;0.90;0.77;;;10.80;99.90;;;;;;5041984;28;20193;-72
2023/12/26 01:05:41;;;;;;;0.90;0.80;;;10.80;99.90;;;;;;5040119;28;20581;-73
2023/12/26 01:08:09;;;;;;;0.80;0.80;;;10.90;99.90;;;;;;5039852;28;21159;-72
2023/12/26 01:10:34;;;;;;;1.20;0.90;;;10.80;99.90;;;;;;5042484;28;20428;-72
2023/12/26 01:13:00;;;;;;;0.90;0.80;;;10.90;99.90;;;;;;5039644;28;20438;-73
2023/12/26 01:15:26;;;;;;;0.97;0.70;;;10.90;99.90;;;;;;5041384;28;20499;-73
2023/12/26 01:17:52;;;;;;;0.80;0.50;;;10.80;99.90;;;;;;5032792;28;20521;-73
2023/12/26 01:20:17;;;;;;;0.90;0.90;;;10.80;99.90;;;;;;5041395;28;20194;-73
2023/12/26 01:22:43;;;;;;;3.07;0.80;;;10.80;99.90;;;;;;5041126;28;20188;-73
2023/12/26 01:25:09;;;;;;;1.53;0.80;;;10.80;99.90;;;;;;5040152;28;20730;-73
2023/12/26 01:27:34;;;;;;;0.60;0.50;;;10.80;99.90;;;;;;5041981;28;20308;-73
2023/12/26 01:30:02;;;;;;;0.70;0.60;;;10.70;99.90;;;;;;5039485;28;20193;-73
2023/12/26 01:32:28;;;;;;;1.30;0.93;;;10.70;99.90;;;;;;5040549;28;20177;-73
2023/12/26 01:34:53;;;;;;;1.00;0.70;;;10.70;99.90;;;;;;5040990;28;20486;-73
2023/12/26 01:37:19;;;;;;;1.00;0.70;;;10.70;99.90;;;;;;5040546;28;20185;-73
2023/12/26 01:39:45;;;;;;;1.37;0.90;;;10.60;99.90;;;;;;5041327;28;20520;-73
2023/12/26 01:42:10;;;;;;;1.77;0.87;;;10.60;99.90;;;;;;5040983;28;20251;-73
2023/12/26 01:44:36;;;;;;;0.73;0.70;;;10.60;99.90;;;;;;5039514;28;20244;-73
2023/12/26 01:47:03;;;;;;;0.60;0.50;;;10.50;99.90;;;;;;5040572;28;20243;-73
2023/12/26 01:49:29;;;;;;;2.03;0.67;;;10.60;99.90;;;;;;5041159;28;20185;-73
2023/12/26 01:51:55;;;;;;;0.70;0.70;;;10.60;99.90;;;;;;5073095;28;20424;-73
2023/12/26 01:54:29;;;;;;;0.73;0.60;;;10.50;99.90;;;;;;5040107;28;20986;-73
2023/12/26 01:56:55;;;;;;;1.23;0.90;;;10.60;99.90;;;;;;5039998;28;20481;-73
2023/12/26 01:59:22;;;;;;;0.90;0.63;;;10.50;99.90;;;;;;5040112;28;20425;-73
2023/12/26 02:01:47;;;;;;;1.20;0.60;;;10.50;99.90;;;;;;5039451;28;20531;-73
2023/12/26 02:04:14;;;;;;;1.10;0.80;;;10.50;99.90;;;;;;5040261;28;20524;-73
2023/12/26 02:06:40;;;;;;;1.00;0.90;;;10.50;99.90;;;;;;5040391;28;20217;-73
2023/12/26 02:09:10;;;;;;;1.70;0.93;;;10.50;99.90;;;;;;5038879;28;21071;-73
2023/12/26 02:11:37;;;;;;;1.10;0.73;;;10.50;99.90;;;;;;5039611;28;20436;-73
2023/12/26 02:14:07;;;;;;;1.20;0.70;;;10.50;99.90;;;;;;5039079;28;20541;-73
2023/12/26 02:16:37;;;;;;;1.40;0.70;;;10.50;99.90;;;;;;5038538;28;20423;-73
2023/12/26 02:19:03;;;;;;;0.90;0.50;;;10.40;99.90;;;;;;5038454;28;20455;-73
2023/12/26 02:21:29;;;;;;;0.63;0.60;;;10.50;99.90;;;;;;5039137;28;21129;-73
2023/12/26 02:23:58;;;;;;;0.80;0.77;;;10.50;99.90;;;;;;5039761;28;20428;-72
2023/12/26 02:26:27;;;;;;;0.57;0.53;;;10.50;99.90;;;;;;5039789;28;20201;-73
2023/12/26 02:28:54;;;;;;;0.67;0.50;;;10.40;99.90;;;;;;5038727;28;20482;-73
2023/12/26 02:31:22;;;;;;;0.77;0.63;;;10.40;99.90;;;;;;5040387;28;20426;-73
2023/12/26 02:33:48;;;;;;;0.60;0.50;;;10.40;99.90;;;;;;5038888;28;20476;-73
2023/12/26 02:36:14;;;;;;;0.80;0.80;;;10.40;99.90;;;;;;5038339;28;20969;-75
2023/12/26 02:38:40;;;;;;;0.93;0.70;;;10.40;99.90;;;;;;5039719;28;20428;-73
2023/12/26 02:41:06;;;;;;;0.73;0.60;;;10.40;99.90;;;;;;5039553;28;20520;-72
2023/12/26 02:43:35;;;;;;;1.00;0.60;;;10.30;99.90;;;;;;5038211;28;20416;-73
2023/12/26 02:46:00;;;;;;;2.17;0.93;;;10.30;99.90;;;;;;5040163;28;20213;-72
2023/12/26 02:48:26;;;;;;;2.50;1.37;;;10.30;99.90;;;;;;5039824;28;20436;-73
2023/12/26 02:50:53;;;;;;;0.63;0.60;;;10.40;99.90;;;;;;5038027;28;20186;-72
2023/12/26 02:53:19;;;;;;;1.30;0.90;;;10.30;99.90;;;;;;5039161;28;20189;-72
2023/12/26 02:55:47;;;;;;;0.80;0.50;;;10.30;99.90;;;;;;5039218;28;20428;-73
2023/12/26 02:58:12;;;;;;;0.70;0.50;;;10.30;99.90;;;;;;5038088;28;20455;-73
2023/12/26 03:00:38;;;;;;;1.10;0.50;;;10.30;99.90;;;;;;5039621;28;20432;-73
2023/12/26 03:03:05;;;;;;;0.80;0.70;;;10.30;99.90;;;;;;5036907;28;20193;-71
2023/12/26 03:05:31;;;;;;;0.97;0.50;;;10.30;99.90;;;;;;5040332;28;20204;-73
2023/12/26 03:07:57;;;;;;;2.33;0.80;;;10.30;99.90;;;;;;5036960;28;20428;-74
2023/12/26 03:10:22;;;;;;;0.70;0.70;;;10.30;99.90;;;;;;5038918;28;20241;-73
2023/12/26 03:12:48;;;;;;;0.50;0.50;;;10.30;99.90;;;;;;5037578;28;20861;-73
2023/12/26 03:15:15;;;;;;;2.23;0.90;;;10.20;99.90;;;;;;5038911;28;20214;-73
2023/12/26 03:17:41;;;;;;;0.50;0.50;;;10.30;99.90;;;;;;5039469;28;20194;-73
2023/12/26 03:20:07;;;;;;;0.90;0.60;;;10.30;99.90;;;;;;5037525;28;20436;-72
2023/12/26 03:22:33;;;;;;;0.77;0.77;;;10.30;99.90;;;;;;5038479;28;20429;-72
2023/12/26 03:24:59;;;;;;;0.90;0.80;;;10.20;99.90;;;;;;5039104;28;20424;-72
2023/12/26 03:27:24;;;;;;;0.60;0.60;;;10.20;99.90;;;;;;5037548;28;20190;-71
2023/12/26 03:29:50;;;;;;;0.70;0.70;;;10.20;99.90;;;;;;5038820;28;20186;-72
2023/12/26 03:32:17;;;;;;;1.83;0.80;;;10.20;99.90;;;;;;5040166;28;20185;-72
2023/12/26 03:34:43;;;;;;;1.07;0.77;;;10.20;99.90;;;;;;5037418;28;20288;-72
2023/12/26 03:37:10;;;;;;;0.50;0.50;;;10.20;99.90;;;;;;5038408;28;20926;-72
2023/12/26 03:39:37;;;;;;;1.23;0.70;;;10.20;99.90;;;;;;5069532;28;20813;-72
2023/12/26 03:42:03;;;;;;;2.20;0.70;;;10.20;99.90;;;;;;5038950;28;20424;-72
2023/12/26 03:44:29;;;;;;;0.70;0.60;;;10.20;99.90;;;;;;5041713;28;20824;-73
2023/12/26 03:46:54;;;;;;;1.77;1.10;;;10.30;99.90;;;;;;5041580;28;20428;-73
2023/12/26 03:49:20;;;;;;;0.60;0.60;;;10.20;99.90;;;;;;5042418;28;20182;-73
2023/12/26 03:51:47;;;;;;;3.10;1.20;;;10.20;99.90;;;;;;5041198;28;20209;-73
2023/12/26 03:54:14;;;;;;;1.00;0.77;;;10.20;99.90;;;;;;5041361;28;20213;-73
2023/12/26 03:56:39;;;;;;;1.47;0.83;;;10.20;99.90;;;;;;5041244;28;20515;-73
2023/12/26 03:59:06;;;;;;;1.07;0.53;;;10.20;99.90;;;;;;5042358;28;20519;-73
2023/12/26 04:01:32;;;;;;;0.83;0.63;;;10.20;99.90;;;;;;5041334;28;20188;-73
2023/12/26 04:03:57;;;;;;;0.80;0.70;;;10.20;99.90;;;;;;5040822;28;20428;-72
2023/12/26 04:06:23;;;;;;;0.60;0.40;;;10.20;99.90;;;;;;5042437;28;20822;-73
2023/12/26 04:08:49;;;;;;;1.23;0.40;;;10.30;99.90;;;;;;5049910;28;20490;-72
2023/12/26 04:11:15;;;;;;;0.67;0.50;;;10.20;99.90;;;;;;5041628;28;20191;-73
2023/12/26 04:13:40;;;;;;;2.10;0.50;;;10.20;99.90;;;;;;5040839;28;20221;-73
2023/12/26 04:16:06;;;;;;;0.67;0.60;;;10.20;99.90;;;;;;5041130;28;20193;-73
2023/12/26 04:18:33;;;;;;;0.60;0.50;;;10.20;99.90;;;;;;5041969;28;20896;-73
2023/12/26 04:20:58;;;;;;;0.70;0.57;;;10.20;99.90;;;;;;5048769;28;21160;-73
2023/12/26 04:23:24;;;;;;;1.23;0.50;;;10.20;99.90;;;;;;5035337;28;20480;-73
2023/12/26 04:25:50;;;;;;;1.00;0.50;;;10.20;99.90;;;;;;5039912;28;20181;-72
2023/12/26 04:28:16;;;;;;;0.60;0.60;;;10.20;99.90;;;;;;5043911;28;20427;-73
2023/12/26 04:30:42;;;;;;;0.83;0.57;;;10.20;99.90;;;;;;5041402;28;20185;-72
2023/12/26 04:33:10;;;;;;;0.60;0.60;;;10.20;99.90;;;;;;5040983;28;20193;-72
2023/12/26 04:35:36;;;;;;;1.00;0.70;;;10.20;99.90;;;;;;5041672;28;20472;-72
2023/12/26 04:38:02;;;;;;;0.77;0.70;;;10.20;99.90;;;;;;5041437;28;21183;-73
2023/12/26 04:40:29;;;;;;;0.60;0.60;;;10.20;99.90;;;;;;5039360;28;20430;-72
2023/12/26 04:42:54;;;;;;;0.70;0.60;;;10.20;99.90;;;;;;5041062;28;20429;-72
2023/12/26 04:45:20;;;;;;;1.27;0.97;;;10.20;99.90;;;;;;5040977;28;20439;-73
2023/12/26 04:47:46;;;;;;;1.20;1.10;;;10.20;99.90;;;;;;5041178;28;20228;-72
2023/12/26 04:50:12;;;;;;;1.67;1.00;;;10.20;99.90;;;;;;5042482;28;20192;-73
2023/12/26 04:52:37;;;;;;;1.40;1.00;;;10.20;99.90;;;;;;5041832;28;20883;-73
2023/12/26 04:55:03;;;;;;;1.20;1.10;;;10.20;99.90;;;;;;5040100;28;20272;-72
2023/12/26 04:57:29;;;;;;;1.67;1.57;;;10.30;99.90;;;;;;5041340;28;20279;-73
2023/12/26 04:59:55;;;;;;;3.03;1.40;;;10.20;99.90;;;;;;5039809;28;20519;-73
2023/12/26 05:02:21;;;;;;;1.20;1.10;;;10.20;99.90;;;;;;5041279;28;20437;-72
2023/12/26 05:04:47;;;;;;;2.00;1.17;;;10.30;99.90;;;;;;5040299;28;20190;-73
2023/12/26 05:07:13;;;;;;;1.47;1.37;;;10.30;99.90;;;;;;5042589;28;20238;-72
2023/12/26 05:09:38;;;;;;;1.20;1.10;;;10.30;99.90;;;;;;5039395;28;20178;-72
2023/12/26 05:12:04;;;;;;;1.30;1.20;;;10.30;99.90;;;;;;5041032;28;20433;-73
2023/12/26 05:14:30;;;;;;;2.07;1.37;;;10.30;99.90;;;;;;5041230;28;20217;-73
2023/12/26 05:16:56;;;;;;;1.57;1.40;;;10.30;99.90;;;;;;5041153;28;20988;-72
2023/12/26 05:19:22;;;;;;;2.20;1.10;;;10.30;99.90;;;;;;5042864;28;20436;-72
2023/12/26 05:21:48;;;;;;;3.67;1.10;;;10.30;99.90;;;;;;5041949;28;20736;-72
2023/12/26 05:24:13;;;;;;;1.20;0.87;;;10.30;99.90;;;;;;5039508;28;21056;-72
2023/12/26 05:26:43;;;;;;;1.00;0.80;;;10.30;99.90;;;;;;5038428;28;20204;-73
2023/12/26 05:29:10;;;;;;;3.43;1.00;;;10.30;99.90;;;;;;5039946;28;20235;-72
2023/12/26 05:31:37;;;;;;;1.10;0.70;;;10.20;99.90;;;;;;5041634;28;20428;-72
2023/12/26 05:34:07;;;;;;;1.17;0.70;;;10.20;99.90;;;;;;5037157;28;20588;-72
2023/12/26 05:36:33;;;;;;;1.47;0.67;;;10.20;99.90;;;;;;5042229;28;20433;-72
2023/12/26 05:38:59;;;;;;;2.37;0.63;;;10.20;99.90;;;;;;5041682;28;20451;-72
2023/12/26 05:41:25;;;;;;;1.67;0.90;;;10.30;99.90;;;;;;5039034;28;20202;-72
2023/12/26 05:43:51;;;;;;;1.50;1.00;;;10.20;99.90;;;;;;5040750;28;20425;-72
2023/12/26 05:46:18;;;;;;;2.77;1.27;;;10.20;99.90;;;;;;5041211;28;20488;-71
2023/12/26 05:48:44;;;;;;;2.13;1.07;;;10.20;99.90;;;;;;5041356;28;21161;-71
2023/12/26 05:51:10;;;;;;;1.30;1.20;;;10.20;99.90;;;;;;5040383;28;20464;-72
2023/12/26 05:53:36;;;;;;;1.63;1.07;;;10.20;99.90;;;;;;5041252;28;20506;-73
2023/12/26 05:56:02;;;;;;;0.83;0.83;;;10.20;99.90;;;;;;5041721;28;20644;-73
2023/12/26 05:58:28;;;;;;;1.23;1.10;;;10.20;99.90;;;;;;5042186;28;20548;-73
2023/12/26 06:00:54;;;;;;;2.40;1.20;;;10.20;99.90;;;;;;5039180;28;20723;-74
2023/12/26 06:03:20;;;;;;;1.93;1.23;;;10.20;99.90;;;;;;5038529;28;20440;-73
2023/12/26 06:05:46;;;;;;;2.50;1.30;;;10.20;99.90;;;;;;5039969;28;20442;-73
2023/12/26 06:08:13;;;;;;;3.43;1.60;;;10.20;99.90;;;;;;5040051;28;20788;-73
2023/12/26 06:10:39;;;;;;;2.20;1.53;;;10.20;99.90;;;;;;5038237;28;21197;-73
2023/12/26 06:13:05;;;;;;;2.33;1.70;;;10.20;99.90;;;;;;5037829;28;20447;-72
2023/12/26 06:15:31;;;;;;;2.23;1.93;;;10.20;99.90;;;;;;5039081;28;20267;-72
2023/12/26 06:17:59;;;;;;;5.27;2.40;;;10.20;99.90;;;;;;5040364;28;20831;-72
2023/12/26 06:20:27;;;;;;;2.57;2.30;;;10.20;99.90;;;;;;5038319;28;20181;-72
2023/12/26 06:22:56;;;;;;;3.20;2.27;;;10.20;99.90;;;;;;5038633;28;20944;-71
2023/12/26 06:25:21;;;;;;;2.30;2.10;;;10.10;99.90;;;;;;5038624;28;20425;-72
2023/12/26 06:27:47;;;;;;;3.70;2.50;;;10.20;99.90;;;;;;5038931;28;20444;-71
2023/12/26 06:30:13;;;;;;;5.30;2.23;;;10.20;99.90;;;;;;5040477;28;20188;-72
2023/12/26 06:32:39;;;;;;;3.40;1.93;;;10.20;99.90;;;;;;5036878;28;20436;-72
2023/12/26 06:35:05;;;;;;;2.00;1.70;;;10.20;99.90;;;;;;5039185;28;20486;-73
2023/12/26 06:37:31;;;;;;;6.10;2.10;;;10.10;99.90;;;;;;5039151;28;20185;-73
2023/12/26 06:39:56;;;;;;;3.73;2.00;;;10.20;99.90;;;;;;5041337;28;20533;-73
2023/12/26 06:42:22;;;;;;;4.60;1.70;;;10.20;99.90;;;;;;5037194;28;20190;-73
2023/12/26 06:44:48;;;;;;;3.13;2.40;;;10.20;99.90;;;;;;5038453;28;20182;-73
2023/12/26 06:47:14;;;;;;;5.57;2.47;;;10.10;99.90;;;;;;5039510;28;20280;-73
2023/12/26 06:49:45;;;;;;;7.10;1.97;;;10.10;99.90;;;;;;5039379;28;20559;-73
2023/12/26 06:52:16;;;;;;;3.20;2.03;;;10.10;99.90;;;;;;5039978;28;20189;-72
2023/12/26 06:54:43;;;;;;;3.63;1.93;;;10.10;99.90;;;;;;5040567;28;21213;-73
2023/12/26 06:57:15;;;;;;;2.43;2.20;;;10.10;99.90;;;;;;5040575;28;20460;-73
2023/12/26 06:59:46;;;;;;;1.60;1.40;;;10.10;99.90;;;;;;5038658;28;20437;-73
2023/12/26 07:02:12;;;;;;;2.80;1.37;;;10.10;99.90;;;;;;5041081;28;20432;-73
2023/12/26 07:04:39;;;;;;;3.87;1.73;;;10.10;99.90;;;;;;5040610;28;20424;-73
2023/12/26 07:07:05;;;;;;;3.40;1.23;;;10.10;99.90;;;;;;5036846;28;20551;-73
2023/12/26 07:09:31;;;;;;;4.47;1.90;;;10.10;99.90;;;;;;5040014;28;21127;-73
2023/12/26 07:11:56;;;;;;;4.67;2.07;;;10.10;99.90;;;;;;5041190;28;20549;-73
2023/12/26 07:14:22;;;;;;;4.10;1.63;;;10.00;99.90;;;;;;5040132;28;20210;-73
2023/12/26 07:16:48;;;;;;;2.40;1.33;;;10.00;99.90;;;;;;5042352;28;20672;-72
2023/12/26 07:19:13;;;;;;;3.90;1.60;;;10.00;99.90;;;;;;5045336;28;20181;-73
2023/12/26 07:21:39;;;;;;;3.30;1.50;;;10.00;99.90;;;;;;5043999;28;20213;-73
2023/12/26 07:24:05;;;;;;;4.47;1.60;;;10.00;99.90;;;;;;5043249;28;20199;-72
2023/12/26 07:26:31;;;;;;;3.00;1.60;;;10.00;99.90;;;;;;5039918;28;20186;-73
2023/12/26 07:28:56;;;;;;;4.77;1.43;;;10.00;99.90;;;;;;5043515;28;20436;-73
2023/12/26 07:31:23;;;;;;;4.23;1.40;;;10.00;99.90;;;;;;5044155;28;20312;-73
2023/12/26 07:33:51;;;;;;;3.40;1.57;;;9.90;99.90;;;;;;5043993;28;20861;-73
2023/12/26 07:36:17;;;;;;;5.67;1.80;;;10.00;99.90;;;;;;5042027;28;20432;-73
2023/12/26 07:38:43;;;;;;;2.53;1.87;;;10.00;99.90;;;;;;5043711;28;20485;-73
2023/12/26 07:41:09;;;;;;;5.13;1.90;;;10.00;99.90;;;;;;5043882;28;20185;-73
2023/12/26 07:43:34;;;;;;;4.33;1.37;;;10.00;99.90;;;;;;5042131;28;20447;-73
2023/12/26 07:46:00;;;;;;;2.57;2.33;;;10.00;99.90;;;;;;5043267;28;20439;-73
2023/12/26 07:48:26;;;;;;;4.40;1.87;;;9.90;99.90;;;;;;5042411;28;20264;-73
2023/12/26 07:50:51;;;;;;;3.87;1.97;;;9.90;99.90;;;;;;5044055;28;20193;-73
2023/12/26 07:53:17;;;;;;;3.87;1.83;;;9.90;99.90;;;;;;5039938;28;20186;-73
2023/12/26 07:55:43;;;;;;;2.90;2.07;;;9.90;99.90;;;;;;5047436;28;20691;-72
2023/12/26 07:58:08;;;;;;;4.73;1.93;;;9.90;99.90;;;;;;5043951;28;20242;-73
2023/12/26 08:00:34;;;;;;;2.60;1.50;;;9.90;99.90;;;;;;5041387;28;20182;-73
2023/12/26 08:03:00;;;;;;;3.93;1.90;;;9.90;99.90;;;;;;5039091;28;20190;-73
2023/12/26 08:05:26;;;;;;;4.50;1.93;;;9.90;99.90;;;;;;5040912;28;20432;-73
2023/12/26 08:07:52;;;;;;;4.77;2.07;;;9.90;99.90;;;;;;5042514;28;20481;-73
2023/12/26 08:10:18;;;;;;;3.93;2.00;;;9.90;99.90;;;;;;5042755;28;20440;-73
2023/12/26 08:12:44;;;;;;;5.60;1.87;;;9.90;99.90;;;;;;5042834;28;20486;-73
2023/12/26 08:15:10;;;;;;;2.20;1.60;;;9.90;99.90;;;;;;5042926;28;20237;-73
2023/12/26 08:17:36;;;;;;;2.97;1.67;;;9.90;99.90;;;;;;5041145;28;20775;-73
2023/12/26 08:20:03;;;;;;;1.97;1.50;;;9.90;99.90;;;;;;5043429;28;20541;-72
2023/12/26 08:22:29;;;;;;;5.07;1.40;;;9.90;99.90;;;;;;5042867;28;20451;-73
2023/12/26 08:24:55;;;;;;;4.60;1.80;;;9.80;99.90;;;;;;5041803;28;20452;-73
2023/12/26 08:27:22;;;;;;;2.80;1.20;;;9.80;99.90;;;;;;5040272;28;21197;-72
2023/12/26 08:29:49;;;;;;;2.83;1.40;;;9.80;99.90;;;;;;5042482;28;20178;-72
2023/12/26 08:32:15;;;;;;;3.63;1.60;;;9.80;99.90;;;;;;5043415;28;20934;-72
2023/12/26 08:34:44;;;;;;;3.30;1.67;;;9.80;99.90;;;;;;5039324;28;20472;-72
2023/12/26 08:37:11;;;;;;;2.90;1.63;;;9.80;99.90;;;;;;5031691;28;20873;-72
2023/12/26 08:39:37;;;;;;;2.40;1.23;;;9.80;99.90;;;;;;5040939;28;20961;-72
2023/12/26 08:42:03;;;;;;;4.80;1.80;;;9.70;99.90;;;;;;5043019;28;20460;-73
2023/12/26 08:44:28;;;;;;;5.47;2.13;;;9.70;99.90;;;;;;5040811;28;20220;-72
2023/12/26 08:46:54;;;;;;;4.30;1.27;;;9.70;99.90;;;;;;5043761;28;20460;-72
2023/12/26 08:49:20;;;;;;;7.23;1.50;;;9.70;99.90;;;;;;5042355;28;20680;-72
2023/12/26 08:51:46;;;;;;;2.50;1.23;;;9.70;99.90;;;;;;5041221;28;20449;-72
2023/12/26 08:54:12;;;;;;;4.80;1.60;;;9.70;99.90;;;;;;5042218;28;20248;-72
2023/12/26 08:56:39;;;;;;;5.20;1.50;;;9.60;99.90;;;;;;5041073;28;20220;-72
2023/12/26 08:59:05;;;;;;;5.77;1.30;;;9.70;99.90;;;;;;5041057;28;20185;-73
2023/12/26 09:01:31;;;;;;;5.70;1.33;;;9.70;99.90;;;;;;5039710;28;20450;-72
2023/12/26 09:03:56;;;;;;;5.10;1.40;;;9.70;99.90;;;;;;5039300;28;20472;-72
2023/12/26 09:06:22;;;;;;;4.20;1.80;;;9.70;99.90;;;;;;5031103;28;20924;-72
2023/12/26 09:08:48;;;;;;;3.83;1.70;;;9.70;99.90;;;;;;5040896;28;20186;-72
2023/12/26 09:11:14;;;;;;;4.23;1.73;;;9.70;99.90;;;;;;5041441;28;20221;-72
2023/12/26 09:13:39;;;;;;;3.40;1.87;;;9.80;99.90;;;;;;5040469;28;20228;-72
2023/12/26 09:16:05;;;;;;;6.37;1.90;;;9.90;99.90;;;;;;5038489;28;20776;-72
2023/12/26 09:18:31;;;;;;;6.07;1.57;;;9.90;99.90;;;;;;5048297;28;20520;-72
2023/12/26 09:20:57;;;;;;;3.77;1.40;;;10.00;99.90;;;;;;5035146;28;20440;-72
2023/12/26 09:23:23;;;;;;;4.00;1.17;;;10.10;99.90;;;;;;5037298;28;21010;-72
2023/12/26 09:25:48;;;;;;;4.40;1.40;;;10.20;99.90;;;;;;5041365;28;20420;-72
2023/12/26 09:28:14;;;;;;;2.63;1.30;;;10.10;99.90;;;;;;5041022;28;20561;-72
2023/12/26 09:30:40;;;;;;;4.43;1.53;;;10.10;99.90;;;;;;5038242;28;20620;-72
2023/12/26 09:33:05;;;;;;;5.30;1.43;;;10.10;99.90;;;;;;5031889;28;20991;-72
2023/12/26 09:35:31;;;;;;;6.83;1.50;;;10.00;99.90;;;;;;5034881;28;20209;-72
2023/12/26 09:37:57;;;;;;;4.13;1.50;;;10.00;99.90;;;;;;5037856;28;20644;-71
2023/12/26 09:40:23;;;;;;;2.73;1.40;;;10.00;99.90;;;;;;5038143;28;20217;-71
2023/12/26 09:42:48;;;;;;;4.77;1.73;;;9.90;99.90;;;;;;5040051;28;20753;-73
2023/12/26 09:45:15;;;;;;;4.70;1.30;;;9.90;99.90;;;;;;5039660;28;20647;-72
2023/12/26 09:47:42;;;;;;;4.83;1.60;;;9.80;99.90;;;;;;5040359;28;20886;-71
2023/12/26 09:50:09;;;;;;;3.57;1.63;;;9.90;99.90;;;;;;5040506;28;20432;-73
2023/12/26 09:52:35;;;;;;;6.13;1.37;;;9.90;99.90;;;;;;5040250;28;20436;-72
2023/12/26 09:55:02;;;;;;;4.20;2.00;;;10.10;99.90;;;;;;5041646;28;20520;-72
2023/12/26 09:57:28;;;;;;;6.23;2.20;;;10.30;99.90;;;;;;5039680;28;20425;-71
2023/12/26 09:59:55;;;;;;;5.03;1.67;;;10.50;99.90;;;;;;5041130;28;20440;-72
2023/12/26 10:02:21;;;;;;;2.77;1.50;;;10.70;99.90;;;;;;5034742;28;20448;-71
2023/12/26 10:04:47;;;;;;;7.30;1.97;;;10.70;99.90;;;;;;5039446;28;20429;-73
2023/12/26 10:07:18;;;;;;;6.63;2.43;;;10.80;99.90;;;;;;5036495;28;20430;-72
2023/12/26 10:09:44;;;;;;;5.00;1.73;;;10.80;99.90;;;;;;5036824;28;20182;-72
2023/12/26 10:12:10;;;;;;;7.83;2.20;;;10.80;99.90;;;;;;5038486;28;20432;-72
2023/12/26 10:14:36;;;;;;;4.90;1.67;;;10.80;99.90;;;;;;5038069;28;20518;-72
2023/12/26 10:17:03;;;;;;;5.43;1.80;;;10.70;99.90;;;;;;5039530;28;20440;-72
2023/12/26 10:19:29;;;;;;;4.37;2.00;;;10.60;99.90;;;;;;5040409;28;20428;-72
2023/12/26 10:21:55;;;;;;;9.30;3.23;;;10.60;99.90;;;;;;5032511;28;21137;-72
2023/12/26 10:24:21;;;;;;;10.03;2.23;;;10.50;99.90;;;;;;5034160;28;20456;-72
2023/12/26 10:26:47;;;;;;;6.20;2.30;;;10.40;99.90;;;;;;5038066;28;20261;-72
2023/12/26 10:29:16;;;;;;;5.30;2.30;;;10.30;99.90;;;;;;5039810;28;20416;-72
2023/12/26 10:31:43;;;;;;;3.43;1.80;;;10.20;99.90;;;;;;5035319;28;21320;-70
2023/12/26 10:34:18;;;;;;;7.60;2.27;;;10.20;99.90;;;;;;5037976;28;20480;-71
2023/12/26 10:36:44;;;;;;;5.80;2.17;;;10.10;99.90;;;;;;5037540;28;20419;-71
2023/12/26 10:39:13;;;;;;;9.07;2.90;;;10.10;99.90;;;;;;5039702;28;21272;-71
2023/12/26 10:41:48;;;;;;;4.17;2.07;;;10.00;99.90;;;;;;5037752;28;20431;-70
2023/12/26 10:44:15;;;;;;;5.30;1.80;;;10.00;99.90;;;;;;5038440;28;20440;-70
2023/12/26 10:46:42;;;;;;;3.87;2.00;;;10.00;99.90;;;;;;5039179;28;20424;-70
2023/12/26 10:49:11;;;;;;;6.27;2.30;;;10.00;99.90;;;;;;5038185;28;20424;-70
2023/12/26 10:51:44;;;;;;;3.77;1.67;;;9.90;99.90;;;;;;5044559;28;20733;-72
2023/12/26 10:54:19;;;;;;;6.43;1.90;;;9.90;99.90;;;;;;5042822;28;20475;-72
2023/12/26 10:56:48;;;;;;;4.77;1.37;;;9.90;99.90;;;;;;5035589;28;20962;-72
2023/12/26 13:51:27;;;;;;;4.27;2.10;;;9.90;99.90;;;;;;5041447;28;20470;-70
2023/12/26 13:53:53;;;;;;;6.10;2.37;;;9.90;99.90;;;;;;5041617;28;21123;-71
2023/12/26 13:56:19;;;;;;;5.77;2.00;;;9.90;99.90;;;;;;5038794;28;20463;-69
2023/12/26 13:58:45;;;;;;;6.50;2.03;;;9.90;99.90;;;;;;5039845;28;20457;-72
2023/12/26 14:01:12;;;;;;;6.23;1.90;;;9.90;99.90;;;;;;5037544;28;20186;-71
2023/12/26 14:03:38;;;;;;;7.07;2.80;;;9.90;99.90;;;;;;5039658;28;20436;-70
2023/12/26 14:06:04;;;;;;;8.20;2.27;;;9.80;99.90;;;;;;5039944;28;20424;-71
2023/12/26 14:08:29;;;;;;;5.47;2.17;;;9.80;99.90;;;;;;5031792;28;20189;-69
2023/12/26 14:10:55;;;;;;;6.37;3.43;;;9.80;99.90;;;;;;5039600;28;20190;-70
2023/12/26 14:13:21;;;;;;;6.00;2.03;;;9.80;99.90;;;;;;5039290;28;20562;-71
2023/12/26 14:15:46;;;;;;;4.90;1.63;;;9.80;99.90;;;;;;5036626;28;20205;-70
2023/12/26 14:18:12;;;;;;;4.20;2.13;;;9.80;99.90;;;;;;5038569;28;20803;-71
2023/12/26 14:20:38;;;;;;;6.83;2.40;;;9.80;99.90;;;;;;5039278;28;20192;-69
2023/12/26 14:23:03;;;;;;;6.20;2.70;;;9.80;99.90;;;;;;5038960;28;20200;-70
2023/12/26 14:25:30;;;;;;;7.87;1.70;;;9.80;99.90;;;;;;5039434;28;20186;-71
2023/12/26 14:27:55;;;;;;;9.20;2.97;;;9.70;99.90;;;;;;5039559;28;20275;-70
2023/12/26 14:30:21;;;;;;;7.67;2.93;;;9.70;99.90;;;;;;5038745;28;20467;-68
2023/12/26 14:32:47;;;;;;;6.87;2.53;;;9.70;99.90;;;;;;5040948;28;20181;-70
2023/12/26 14:35:31;;;;;;;5.63;3.30;;;9.70;99.90;;;;;;5045779;28;20239;-72
2023/12/26 14:37:57;;;;;;;6.47;2.73;;;9.70;99.90;;;;;;5039318;28;20424;-70
2023/12/26 14:40:23;;;;;;;5.77;1.70;;;9.70;99.90;;;;;;5040409;28;20189;-69
2023/12/26 14:42:48;;;;;;;4.60;2.37;;;9.60;99.90;;;;;;5039135;28;20735;-69
2023/12/26 14:45:14;;;;;;;6.03;2.67;;;9.70;99.90;;;;;;5034258;28;20189;-72
2023/12/26 14:47:40;;;;;;;7.57;2.67;;;9.60;99.90;;;;;;5038439;28;20571;-70
2023/12/26 14:50:05;;;;;;;5.10;2.83;;;9.60;99.90;;;;;;5035039;28;20300;-70
2023/12/26 14:52:31;;;;;;;7.30;2.47;;;9.60;99.90;;;;;;5039738;28;20221;-72
2023/12/26 14:54:56;;;;;;;6.00;2.70;;;9.60;99.90;;;;;;5040778;28;20221;-69
2023/12/26 14:57:22;;;;;;;10.57;2.60;;;9.60;99.90;;;;;;5039219;28;20184;-69
2023/12/26 14:59:48;;;;;;;7.90;2.53;;;9.60;99.90;;;;;;5030902;28;20834;-70
2023/12/26 15:02:13;;;;;;;11.00;2.87;;;9.50;99.90;;;;;;5032372;28;20591;-69
2023/12/26 15:04:39;;;;;;;6.30;2.97;;;9.50;99.90;;;;;;5067259;28;20205;-69
2023/12/26 15:07:07;;;;;;;7.83;3.57;;;9.50;99.90;;;;;;5034257;28;20201;-70
2023/12/26 15:09:33;;;;;;;4.80;2.40;;;9.50;99.90;;;;;;5035641;28;20197;-70
2023/12/26 15:11:58;;;;;;;8.47;3.17;;;9.50;99.90;;;;;;5033003;28;20445;-71
2023/12/26 15:14:24;;;;;;;10.83;3.00;;;9.50;99.90;;;;;;5034734;28;20218;-70
2023/12/26 15:16:50;;;;;;;8.90;2.70;;;9.50;99.90;;;;;;5033747;28;20195;-70
2023/12/26 15:19:16;;;;;;;6.37;2.83;;;9.50;99.90;;;;;;5029491;28;20216;-69
2023/12/26 15:21:43;;;;;;;8.00;2.87;;;9.50;99.90;;;;;;5037992;28;20265;-69
2023/12/26 15:24:13;;;;;;;10.23;3.30;;;9.50;99.90;;;;;;5034377;28;20449;-71
2023/12/26 15:26:39;;;;;;;7.50;3.20;;;9.50;99.90;;;;;;5032760;28;20467;-69
2023/12/26 15:29:05;;;;;;;7.43;2.40;;;9.50;99.90;;;;;;5036695;28;20443;-70
2023/12/26 15:31:32;;;;;;;5.43;2.60;;;9.50;99.90;;;;;;5036855;28;20440;-69
2023/12/26 15:33:58;;;;;;;9.23;4.20;;;9.50;99.90;;;;;;5039730;28;20459;-69
2023/12/26 15:36:25;;;;;;;7.67;3.97;;;9.40;99.90;;;;;;5038641;28;20443;-71
2023/12/26 15:38:52;;;;;;;4.37;2.20;;;9.40;99.90;;;;;;5043997;28;20440;-70